createdAt,value
2022-10-11T00:02:11.461Z,16.73
2022-10-11T00:03:11.472Z,16.74
2022-10-11T00:04:11.445Z,16.75
2022-10-11T00:07:11.446Z,16.74
2022-10-11T00:11:11.515Z,16.73
2022-10-11T00:12:11.479Z,16.71
2022-10-11T00:13:11.504Z,16.70
2022-10-11T00:15:11.429Z,16.71
2022-10-11T00:16:11.507Z,16.72
2022-10-11T00:17:11.492Z,16.74
2022-10-11T00:18:11.477Z,16.75
2022-10-11T00:19:11.477Z,16.76
2022-10-11T00:20:11.446Z,16.77
2022-10-11T00:22:11.520Z,16.78
2022-10-11T00:23:11.509Z,16.77
2022-10-11T00:25:11.537Z,16.79
2022-10-11T00:26:11.484Z,16.78
2022-10-11T00:28:11.567Z,16.76
2022-10-11T00:29:11.527Z,16.74
2022-10-11T00:30:11.528Z,16.72
2022-10-11T00:31:11.530Z,16.69
2022-10-11T00:32:11.502Z,16.67
2022-10-11T00:34:11.503Z,16.68
2022-10-11T00:35:11.572Z,16.67
2022-10-11T00:36:11.518Z,16.66
2022-10-11T00:38:11.535Z,16.68
2022-10-11T00:39:13.771Z,16.66
2022-10-11T00:41:11.525Z,16.65
2022-10-11T00:42:11.551Z,16.66
2022-10-11T00:43:11.570Z,16.67
2022-10-11T00:45:11.614Z,16.69
2022-10-11T00:46:11.607Z,16.70
2022-10-11T00:47:11.549Z,16.69
2022-10-11T00:49:11.540Z,16.70
2022-10-11T00:51:11.603Z,16.73
2022-10-11T00:53:11.545Z,16.74
2022-10-11T00:54:11.603Z,16.75
2022-10-11T00:55:11.584Z,16.76
2022-10-11T00:56:11.589Z,16.75
2022-10-11T00:57:11.585Z,16.76
2022-10-11T01:00:11.544Z,16.77
2022-10-11T01:01:11.626Z,16.78
2022-10-11T01:02:11.510Z,16.80
2022-10-11T01:03:11.529Z,16.81
2022-10-11T01:06:11.562Z,16.76
2022-10-11T01:11:11.501Z,16.77
2022-10-11T01:12:11.504Z,16.78
2022-10-11T01:13:11.500Z,16.79
2022-10-11T01:14:11.513Z,16.80
2022-10-11T01:16:11.497Z,16.79
2022-10-11T01:17:11.509Z,16.78
2022-10-11T01:19:11.529Z,16.79
2022-10-11T01:20:11.530Z,16.80
2022-10-11T01:21:11.527Z,16.81
2022-10-11T01:22:11.537Z,16.83
2022-10-11T01:23:11.550Z,16.84
2022-10-11T01:24:11.519Z,16.82
2022-10-11T01:25:11.527Z,16.76
2022-10-11T01:30:11.560Z,16.77
2022-10-11T01:31:11.530Z,16.80
2022-10-11T01:32:11.546Z,16.82
2022-10-11T01:33:11.578Z,16.83
2022-10-11T01:34:11.585Z,16.85
2022-10-11T01:35:11.564Z,16.86
2022-10-11T01:37:11.588Z,16.84
2022-10-11T01:39:11.597Z,16.85
2022-10-11T01:40:11.585Z,16.84
2022-10-11T01:41:11.571Z,16.85
2022-10-11T01:42:11.571Z,16.83
2022-10-11T01:43:11.577Z,16.84
2022-10-11T01:44:11.589Z,16.83
2022-10-11T01:47:11.623Z,16.84
2022-10-11T01:48:11.606Z,16.85
2022-10-11T01:52:11.631Z,16.84
2022-10-11T01:53:11.597Z,16.85
2022-10-11T01:54:11.610Z,16.87
2022-10-11T01:56:11.595Z,16.86
2022-10-11T01:58:11.643Z,16.85
2022-10-11T01:59:11.630Z,16.83
2022-10-11T02:00:11.622Z,16.81
2022-10-11T02:01:11.632Z,16.79
2022-10-11T02:03:11.636Z,16.78
2022-10-11T02:07:11.638Z,16.79
2022-10-11T02:09:11.667Z,16.80
2022-10-11T02:11:11.638Z,16.81
2022-10-11T02:12:11.652Z,16.82
2022-10-11T02:14:11.677Z,16.83
2022-10-11T02:15:11.660Z,16.82
2022-10-11T02:16:11.688Z,16.81
2022-10-11T02:20:11.678Z,16.82
2022-10-11T02:21:11.674Z,16.83
2022-10-11T02:22:11.676Z,16.84
2022-10-11T02:23:11.678Z,16.85
2022-10-11T02:24:11.670Z,16.87
2022-10-11T02:25:11.665Z,16.88
2022-10-11T02:26:11.698Z,16.89
2022-10-11T02:29:11.704Z,16.90
2022-10-11T02:30:11.696Z,16.91
2022-10-11T02:31:11.682Z,16.90
2022-10-11T02:33:11.721Z,16.89
2022-10-11T02:35:11.726Z,16.87
2022-10-11T02:38:11.742Z,16.85
2022-10-11T02:39:11.717Z,16.84
2022-10-11T02:40:11.717Z,16.86
2022-10-11T02:46:11.795Z,16.88
2022-10-11T02:47:11.764Z,16.89
2022-10-11T02:48:11.729Z,16.90
2022-10-11T02:49:11.763Z,16.91
2022-10-11T02:51:53.316Z,16.91
2022-10-11T02:52:16.590Z,16.90
2022-10-11T02:57:48.343Z,16.90
2022-10-11T02:57:58.647Z,16.82
2022-10-11T02:58:11.711Z,16.81
2022-10-11T02:59:11.781Z,16.82
2022-10-11T03:01:11.835Z,16.83
2022-10-11T03:02:11.787Z,16.84
2022-10-11T03:05:11.802Z,16.83
2022-10-11T03:06:11.799Z,16.81
2022-10-11T03:08:11.789Z,16.82
2022-10-11T03:09:11.796Z,16.81
2022-10-11T03:10:11.809Z,16.80
2022-10-11T03:13:14.887Z,16.81
2022-10-11T03:18:11.836Z,16.82
2022-10-11T03:19:14.676Z,16.79
2022-10-11T03:20:11.811Z,16.78
2022-10-11T03:22:11.834Z,16.62
2022-10-11T03:23:11.856Z,16.57
2022-10-11T03:25:11.837Z,16.59
2022-10-11T03:26:11.841Z,16.60
2022-10-11T03:27:11.855Z,16.61
2022-10-11T03:28:11.914Z,16.62
2022-10-11T03:29:11.837Z,16.64
2022-10-11T03:30:16.113Z,16.66
2022-10-11T03:31:11.860Z,16.67
2022-10-11T03:32:11.838Z,16.68
2022-10-11T03:34:11.851Z,16.69
2022-10-11T03:40:11.874Z,16.68
2022-10-11T03:41:11.876Z,16.67
2022-10-11T03:42:11.883Z,16.66
2022-10-11T03:43:11.885Z,16.67
2022-10-11T03:45:11.907Z,16.68
2022-10-11T03:46:11.896Z,16.69
2022-10-11T03:47:11.905Z,16.70
2022-10-11T03:48:11.908Z,16.69
2022-10-11T03:51:11.904Z,16.68
2022-10-11T03:52:11.907Z,16.66
2022-10-11T03:53:11.896Z,16.64
2022-10-11T03:54:11.905Z,16.63
2022-10-11T03:55:11.915Z,16.60
2022-10-11T03:56:12.320Z,16.49
2022-10-11T03:57:11.944Z,16.36
2022-10-11T03:58:11.907Z,16.19
2022-10-11T03:59:11.938Z,15.98
2022-10-11T04:00:11.924Z,15.90
2022-10-11T04:01:11.926Z,15.89
2022-10-11T04:02:12.093Z,15.94
2022-10-11T04:03:11.936Z,16.02
2022-10-11T04:04:11.944Z,16.03
2022-10-11T04:05:11.938Z,16.08
2022-10-11T04:06:11.945Z,16.03
2022-10-11T04:08:12.431Z,15.99
2022-10-11T04:10:11.974Z,15.95
2022-10-11T04:11:11.955Z,15.98
2022-10-11T04:12:11.963Z,16.04
2022-10-11T04:13:11.962Z,16.12
2022-10-11T04:14:11.969Z,16.17
2022-10-11T04:15:11.958Z,16.19
2022-10-11T04:16:11.968Z,16.20
2022-10-11T04:17:12.015Z,16.22
2022-10-11T04:18:11.966Z,16.23
2022-10-11T04:21:11.988Z,16.22
2022-10-11T04:22:11.980Z,16.23
2022-10-11T04:25:12.009Z,16.24
2022-10-11T04:29:12.029Z,16.25
2022-10-11T04:30:12.033Z,16.23
2022-10-11T04:31:12.012Z,16.22
2022-10-11T04:32:12.022Z,16.20
2022-10-11T04:33:12.034Z,16.13
2022-10-11T04:34:12.020Z,16.05
2022-10-11T04:35:11.992Z,15.92
2022-10-11T04:36:12.031Z,15.85
2022-10-11T04:37:12.018Z,15.84
2022-10-11T04:38:12.030Z,15.88
2022-10-11T04:39:12.043Z,15.92
2022-10-11T04:40:12.150Z,15.94
2022-10-11T04:41:12.046Z,15.95
2022-10-11T04:42:12.054Z,15.96
2022-10-11T04:45:12.045Z,15.97
2022-10-11T04:48:12.087Z,15.98
2022-10-11T04:49:12.032Z,15.99
2022-10-11T04:50:12.070Z,16.00
2022-10-11T04:51:12.110Z,16.03
2022-10-11T04:52:12.042Z,16.04
2022-10-11T04:56:12.099Z,16.03
2022-10-11T04:57:12.091Z,16.04
2022-10-11T04:59:12.064Z,16.06
2022-10-11T05:00:12.083Z,16.07
2022-10-11T05:01:12.108Z,16.06
2022-10-11T05:02:12.227Z,16.05
2022-10-11T05:03:12.095Z,16.06
2022-10-11T05:04:12.110Z,16.07
2022-10-11T05:05:12.090Z,16.08
2022-10-11T05:06:12.637Z,16.09
2022-10-11T05:07:12.106Z,16.11
2022-10-11T05:09:12.143Z,16.10
2022-10-11T05:10:12.123Z,16.09
2022-10-11T05:12:12.110Z,16.08
2022-10-11T05:14:12.122Z,16.09
2022-10-11T05:15:12.132Z,16.10
2022-10-11T05:16:12.590Z,16.11
2022-10-11T05:17:12.128Z,16.12
2022-10-11T05:18:12.158Z,16.11
2022-10-11T05:19:12.129Z,16.13
2022-10-11T05:21:12.158Z,16.14
2022-10-11T05:26:12.137Z,16.15
2022-10-11T05:27:12.189Z,16.17
2022-10-11T05:28:12.186Z,16.19
2022-10-11T05:29:12.175Z,16.21
2022-10-11T05:30:12.177Z,16.22
2022-10-11T05:31:12.170Z,16.24
2022-10-11T05:33:12.175Z,16.25
2022-10-11T05:34:12.176Z,16.27
2022-10-11T05:36:12.164Z,16.26
2022-10-11T05:38:12.183Z,16.27
2022-10-11T05:41:12.200Z,16.28
2022-10-11T05:43:12.175Z,16.29
2022-10-11T05:46:12.190Z,16.31
2022-10-11T05:47:12.205Z,16.32
2022-10-11T05:48:12.206Z,16.33
2022-10-11T05:49:12.202Z,16.34
2022-10-11T05:52:12.223Z,16.35
2022-10-11T05:53:12.217Z,16.36
2022-10-11T05:55:12.236Z,16.37
2022-10-11T05:56:12.235Z,16.38
2022-10-11T05:58:12.270Z,16.39
2022-10-11T05:59:12.254Z,16.40
2022-10-11T06:00:12.235Z,16.42
2022-10-11T06:01:12.297Z,16.43
2022-10-11T06:03:12.360Z,16.44
2022-10-11T06:04:12.246Z,16.45
2022-10-11T06:08:12.274Z,16.46
2022-10-11T06:11:12.324Z,16.45
2022-10-11T06:12:12.273Z,16.46
2022-10-11T06:14:12.275Z,16.45
2022-10-11T06:15:12.280Z,16.46
2022-10-11T06:17:12.325Z,16.45
2022-10-11T06:20:12.311Z,16.46
2022-10-11T06:21:12.283Z,16.48
2022-10-11T06:26:12.332Z,16.49
2022-10-11T06:27:12.318Z,16.51
2022-10-11T06:29:12.316Z,16.52
2022-10-11T06:30:12.303Z,16.54
2022-10-11T06:31:12.329Z,16.56
2022-10-11T06:33:12.307Z,16.57
2022-10-11T06:34:12.345Z,16.60
2022-10-11T06:35:12.344Z,16.61
2022-10-11T06:36:12.315Z,16.62
2022-10-11T06:37:12.323Z,16.64
2022-10-11T06:38:12.342Z,16.66
2022-10-11T06:39:12.339Z,16.69
2022-10-11T06:40:12.328Z,16.72
2022-10-11T06:41:12.343Z,16.73
2022-10-11T06:43:12.351Z,16.74
2022-10-11T06:44:14.314Z,16.75
2022-10-11T06:45:12.362Z,16.76
2022-10-11T06:46:12.360Z,16.74
2022-10-11T06:47:12.365Z,16.73
2022-10-11T06:48:12.379Z,16.70
2022-10-11T06:49:12.383Z,16.67
2022-10-11T06:50:12.357Z,16.65
2022-10-11T06:51:12.376Z,16.64
2022-10-11T06:52:12.381Z,16.62
2022-10-11T06:54:12.385Z,16.61
2022-10-11T06:55:12.403Z,16.59
2022-10-11T06:56:12.365Z,16.58
2022-10-11T06:57:12.395Z,16.57
2022-10-11T06:58:12.389Z,16.56
2022-10-11T07:00:12.783Z,16.59
2022-10-11T07:01:12.508Z,16.60
2022-10-11T07:03:12.405Z,16.61
2022-10-11T07:04:12.405Z,16.62
2022-10-11T07:06:12.402Z,16.64
2022-10-11T07:07:12.423Z,16.65
2022-10-11T07:08:12.400Z,16.68
2022-10-11T07:09:12.424Z,16.69
2022-10-11T07:10:12.451Z,16.71
2022-10-11T07:11:12.419Z,16.74
2022-10-11T07:12:12.410Z,16.78
2022-10-11T07:13:17.018Z,16.81
2022-10-11T07:14:12.445Z,16.83
2022-10-11T07:15:12.425Z,16.85
2022-10-11T07:16:12.428Z,16.87
2022-10-11T07:17:12.447Z,16.88
2022-10-11T07:19:12.447Z,16.89
2022-10-11T07:20:12.492Z,16.91
2022-10-11T07:22:12.460Z,16.92
2022-10-11T07:27:12.468Z,16.95
2022-10-11T07:28:12.481Z,16.98
2022-10-11T07:29:12.470Z,17.03
2022-10-11T07:30:12.465Z,17.11
2022-10-11T07:31:12.459Z,17.19
2022-10-11T07:32:12.477Z,17.30
2022-10-11T07:33:12.474Z,17.51
2022-10-11T07:34:12.471Z,17.90
2022-10-11T07:35:12.465Z,18.40
2022-10-11T07:36:12.470Z,18.87
2022-10-11T07:37:12.501Z,19.54
2022-10-11T07:38:12.491Z,20.20
2022-10-11T07:39:12.495Z,21.09
2022-10-11T07:40:12.512Z,21.91
2022-10-11T07:41:12.486Z,22.70
2022-10-11T07:42:12.505Z,23.48
2022-10-11T07:43:12.492Z,24.21
2022-10-11T07:44:12.502Z,24.85
2022-10-11T07:45:12.500Z,25.32
2022-10-11T07:46:12.567Z,25.86
2022-10-11T07:47:12.555Z,26.16
2022-10-11T07:48:12.515Z,26.29
2022-10-11T07:49:12.521Z,26.54
2022-10-11T07:50:12.520Z,26.81
2022-10-11T07:51:12.535Z,27.09
2022-10-11T07:52:12.564Z,27.40
2022-10-11T07:53:12.546Z,27.64
2022-10-11T07:54:12.535Z,27.82
2022-10-11T07:55:12.515Z,27.95
2022-10-11T07:56:12.547Z,28.17
2022-10-11T07:57:12.526Z,28.33
2022-10-11T07:58:12.538Z,28.66
2022-10-11T07:59:12.557Z,29.00
2022-10-11T08:00:12.538Z,29.33
2022-10-11T08:01:12.592Z,29.65
2022-10-11T08:02:12.525Z,29.86
2022-10-11T08:03:12.575Z,29.90
2022-10-11T08:04:12.572Z,29.65
2022-10-11T08:05:12.560Z,29.51
2022-10-11T08:06:12.549Z,29.10
2022-10-11T08:07:12.551Z,28.55
2022-10-11T08:08:12.567Z,28.18
2022-10-11T08:09:12.603Z,28.10
2022-10-11T08:10:12.580Z,28.23
2022-10-11T08:11:12.569Z,28.42
2022-10-11T08:12:12.561Z,28.58
2022-10-11T08:13:12.598Z,28.82
2022-10-11T08:14:12.594Z,29.02
2022-10-11T08:15:12.575Z,29.17
2022-10-11T08:16:12.572Z,29.36
2022-10-11T08:17:12.601Z,29.59
2022-10-11T08:18:12.597Z,29.89
2022-10-11T08:19:12.581Z,30.17
2022-10-11T08:20:12.653Z,30.28
2022-10-11T08:21:12.589Z,30.16
2022-10-11T08:22:12.595Z,30.33
2022-10-11T08:23:12.608Z,30.51
2022-10-11T08:24:12.609Z,30.67
2022-10-11T08:25:12.640Z,30.99
2022-10-11T08:26:12.615Z,31.10
2022-10-11T08:27:12.589Z,31.28
2022-10-11T08:28:12.729Z,31.71
2022-10-11T08:29:12.595Z,32.09
2022-10-11T08:30:12.605Z,32.30
2022-10-11T08:31:12.640Z,32.53
2022-10-11T08:32:12.642Z,32.75
2022-10-11T08:33:12.646Z,32.93
2022-10-11T08:34:12.625Z,32.68
2022-10-11T08:35:12.620Z,32.91
2022-10-11T08:36:12.633Z,33.16
2022-10-11T08:37:12.653Z,33.31
2022-10-11T08:38:12.642Z,33.32
2022-10-11T08:39:12.648Z,33.44
2022-10-11T08:40:12.659Z,33.51
2022-10-11T08:41:12.631Z,33.65
2022-10-11T08:42:12.635Z,33.81
2022-10-11T08:43:12.654Z,33.88
2022-10-11T08:44:12.667Z,34.03
2022-10-11T08:45:12.660Z,33.74
2022-10-11T08:46:12.667Z,33.58
2022-10-11T08:47:12.674Z,33.48
2022-10-11T08:48:12.674Z,33.32
2022-10-11T08:49:12.691Z,33.58
2022-10-11T08:50:12.695Z,33.68
2022-10-11T08:51:12.676Z,33.71
2022-10-11T08:52:12.679Z,33.88
2022-10-11T08:53:12.678Z,34.05
2022-10-11T08:54:12.694Z,34.29
2022-10-11T08:55:12.671Z,34.52
2022-10-11T08:56:12.699Z,34.73
2022-10-11T08:57:12.697Z,34.29
2022-10-11T08:58:12.705Z,33.84
2022-10-11T09:00:12.688Z,33.45
2022-10-11T09:01:12.765Z,33.31
2022-10-11T09:02:12.718Z,32.59
2022-10-11T09:03:12.716Z,31.84
2022-10-11T09:04:12.706Z,31.86
2022-10-11T09:05:12.740Z,31.12
2022-10-11T09:06:12.718Z,31.26
2022-10-11T09:08:12.732Z,31.36
2022-10-11T09:09:12.727Z,30.62
2022-10-11T09:10:12.729Z,30.40
2022-10-11T09:11:12.713Z,30.09
2022-10-11T09:12:12.749Z,29.62
2022-10-11T09:13:12.718Z,29.68
2022-10-11T09:14:12.740Z,30.22
2022-10-11T09:15:12.744Z,30.79
2022-10-11T09:16:12.736Z,31.30
2022-10-11T09:17:12.746Z,31.72
2022-10-11T09:18:12.754Z,32.08
2022-10-11T09:19:12.752Z,32.42
2022-10-11T09:20:12.771Z,32.68
2022-10-11T09:21:12.744Z,32.63
2022-10-11T09:22:12.759Z,32.53
2022-10-11T09:23:12.782Z,32.78
2022-10-11T09:24:12.780Z,32.92
2022-10-11T09:25:12.765Z,33.09
2022-10-11T09:26:12.775Z,33.31
2022-10-11T09:27:12.784Z,33.57
2022-10-11T09:28:12.794Z,33.65
2022-10-11T09:29:12.798Z,33.70
2022-10-11T09:30:12.790Z,33.68
2022-10-11T09:31:12.784Z,33.60
2022-10-11T09:32:12.778Z,33.31
2022-10-11T09:33:12.793Z,32.83
2022-10-11T09:34:12.816Z,32.38
2022-10-11T09:35:12.803Z,31.97
2022-10-11T09:36:12.807Z,31.52
2022-10-11T09:37:12.786Z,31.13
2022-10-11T09:38:12.798Z,30.78
2022-10-11T09:39:12.825Z,30.47
2022-10-11T09:40:12.810Z,30.19
2022-10-11T09:41:12.812Z,29.93
2022-10-11T09:42:12.817Z,29.74
2022-10-11T09:43:12.832Z,29.56
2022-10-11T09:44:12.816Z,29.42
2022-10-11T09:45:12.818Z,29.24
2022-10-11T09:46:12.835Z,29.03
2022-10-11T09:47:12.849Z,28.84
2022-10-11T09:48:12.834Z,28.73
2022-10-11T09:49:12.846Z,28.63
2022-10-11T09:50:12.826Z,28.52
2022-10-11T09:51:12.846Z,28.40
2022-10-11T09:52:12.846Z,28.26
2022-10-11T09:53:12.857Z,28.11
2022-10-11T09:54:12.839Z,27.97
2022-10-11T09:55:15.363Z,27.82
2022-10-11T09:56:12.853Z,27.66
2022-10-11T09:57:12.868Z,27.51
2022-10-11T09:58:12.853Z,27.36
2022-10-11T09:59:12.888Z,27.23
2022-10-11T10:00:12.896Z,27.14
2022-10-11T10:01:12.869Z,26.93
2022-10-11T10:02:12.963Z,26.71
2022-10-11T10:03:12.863Z,26.26
2022-10-11T10:04:12.877Z,25.99
2022-10-11T10:05:12.852Z,25.81
2022-10-11T10:06:12.886Z,25.72
2022-10-11T10:07:12.893Z,25.70
2022-10-11T10:08:12.893Z,25.69
2022-10-11T10:09:12.906Z,25.62
2022-10-11T10:10:12.891Z,25.59
2022-10-11T10:11:12.904Z,25.57
2022-10-11T10:12:12.911Z,25.62
2022-10-11T10:13:12.938Z,25.73
2022-10-11T10:14:12.897Z,25.76
2022-10-11T10:15:12.880Z,25.79
2022-10-11T10:16:12.927Z,25.84
2022-10-11T10:17:12.941Z,25.89
2022-10-11T10:18:12.908Z,25.84
2022-10-11T10:19:12.902Z,25.85
2022-10-11T10:20:12.941Z,25.77
2022-10-11T10:21:12.913Z,25.72
2022-10-11T10:22:12.965Z,25.70
2022-10-11T10:23:12.951Z,25.68
2022-10-11T10:24:12.972Z,25.70
2022-10-11T10:25:12.970Z,25.77
2022-10-11T10:26:12.949Z,25.80
2022-10-11T10:27:12.947Z,25.85
2022-10-11T10:28:13.035Z,25.92
2022-10-11T10:31:12.958Z,25.91
2022-10-11T10:32:14.755Z,25.89
2022-10-11T10:33:12.951Z,25.88
2022-10-11T10:34:13.010Z,25.87
2022-10-11T10:35:12.961Z,25.84
2022-10-11T10:36:12.971Z,25.76
2022-10-11T10:37:12.957Z,25.68
2022-10-11T10:38:12.990Z,25.62
2022-10-11T10:39:12.988Z,25.55
2022-10-11T10:40:12.981Z,25.49
2022-10-11T10:41:12.979Z,25.43
2022-10-11T10:42:12.955Z,25.39
2022-10-11T10:43:12.986Z,25.35
2022-10-11T10:44:12.974Z,25.31
2022-10-11T10:45:16.210Z,25.29
2022-10-11T10:46:13.008Z,25.18
2022-10-11T10:47:13.007Z,25.03
2022-10-11T10:48:12.996Z,24.92
2022-10-11T10:49:52.321Z,24.83
2022-10-11T10:50:13.039Z,24.77
2022-10-11T10:53:13.029Z,24.80
2022-10-11T10:54:13.030Z,24.83
2022-10-11T10:55:13.010Z,24.89
2022-10-11T10:56:12.999Z,24.93
2022-10-11T10:57:13.027Z,24.91
2022-10-11T10:58:16.463Z,24.88
2022-10-11T10:59:13.009Z,24.90
2022-10-11T11:00:13.019Z,24.96
2022-10-11T11:01:13.042Z,24.98
2022-10-11T11:02:38.583Z,24.96
2022-10-11T11:03:13.036Z,24.98
2022-10-11T11:04:13.028Z,24.99
2022-10-11T11:05:13.034Z,25.04
2022-10-11T11:06:13.033Z,25.06
2022-10-11T11:07:13.047Z,25.07
2022-10-11T11:08:13.049Z,25.06
2022-10-11T11:09:13.049Z,25.03
2022-10-11T11:10:13.044Z,24.98
2022-10-11T11:11:13.065Z,24.92
2022-10-11T11:12:13.057Z,24.79
2022-10-11T11:13:13.025Z,24.76
2022-10-11T11:14:13.034Z,24.72
2022-10-11T11:15:13.055Z,24.67
2022-10-11T11:16:13.105Z,24.65
2022-10-11T11:17:13.077Z,24.60
2022-10-11T11:18:13.074Z,24.56
2022-10-11T11:19:13.085Z,24.51
2022-10-11T11:20:13.086Z,24.46
2022-10-11T11:21:13.065Z,24.44
2022-10-11T11:22:13.079Z,24.40
2022-10-11T11:23:13.109Z,24.35
2022-10-11T11:24:13.072Z,24.31
2022-10-11T11:25:13.095Z,24.26
2022-10-11T11:26:13.068Z,24.24
2022-10-11T11:27:13.094Z,24.27
2022-10-11T11:28:13.100Z,24.28
2022-10-11T11:29:13.105Z,24.25
2022-10-11T11:30:13.209Z,24.21
2022-10-11T11:31:13.091Z,24.18
2022-10-11T11:32:13.131Z,24.16
2022-10-11T11:33:13.122Z,24.14
2022-10-11T11:34:13.156Z,24.06
2022-10-11T11:35:13.111Z,24.01
2022-10-11T11:36:13.119Z,23.99
2022-10-11T11:37:13.119Z,23.95
2022-10-11T11:38:13.112Z,23.93
2022-10-11T11:39:13.124Z,23.90
2022-10-11T11:40:13.168Z,23.91
2022-10-11T11:41:13.114Z,23.95
2022-10-11T11:42:13.140Z,23.97
2022-10-11T11:43:13.118Z,24.01
2022-10-11T11:44:13.156Z,24.03
2022-10-11T11:45:13.148Z,24.06
2022-10-11T11:46:13.154Z,24.10
2022-10-11T11:48:13.135Z,23.91
2022-10-11T11:49:13.216Z,23.78
2022-10-11T11:50:13.220Z,23.72
2022-10-11T11:51:13.152Z,23.71
2022-10-11T11:52:13.159Z,23.73
2022-10-11T11:53:13.149Z,23.76
2022-10-11T11:54:13.193Z,23.74
2022-10-11T11:56:13.164Z,23.77
2022-10-11T11:57:13.170Z,23.76
2022-10-11T11:58:13.205Z,23.77
2022-10-11T11:59:13.179Z,23.79
2022-10-11T12:00:13.178Z,23.84
2022-10-11T12:01:13.173Z,23.88
2022-10-11T12:02:13.267Z,23.91
2022-10-11T12:03:13.203Z,23.96
2022-10-11T12:04:13.230Z,24.00
2022-10-11T12:05:13.182Z,23.99
2022-10-11T12:06:13.202Z,23.97
2022-10-11T12:07:17.133Z,23.95
2022-10-11T12:08:13.181Z,23.97
2022-10-11T12:09:13.211Z,23.99
2022-10-11T12:11:13.228Z,23.97
2022-10-11T12:12:13.219Z,23.96
2022-10-11T12:13:13.229Z,23.83
2022-10-11T12:14:13.201Z,23.61
2022-10-11T12:15:13.219Z,23.54
2022-10-11T12:16:13.227Z,23.49
2022-10-11T12:17:13.224Z,23.47
2022-10-11T12:19:13.244Z,23.51
2022-10-11T12:20:13.256Z,23.55
2022-10-11T12:21:13.240Z,23.56
2022-10-11T12:22:13.252Z,23.59
2022-10-11T12:24:13.247Z,23.57
2022-10-11T12:25:17.590Z,23.53
2022-10-11T12:26:13.227Z,23.49
2022-10-11T12:27:13.267Z,23.41
2022-10-11T12:29:13.238Z,23.45
2022-10-11T12:30:13.257Z,23.48
2022-10-11T12:31:13.247Z,23.51
2022-10-11T12:32:13.265Z,23.53
2022-10-11T12:34:13.278Z,23.55
2022-10-11T12:35:13.263Z,23.58
2022-10-11T12:36:13.879Z,23.61
2022-10-11T12:37:13.269Z,23.60
2022-10-11T12:38:13.271Z,23.59
2022-10-11T12:39:13.294Z,23.56
2022-10-11T12:40:13.278Z,23.57
2022-10-11T12:41:13.282Z,23.59
2022-10-11T12:42:13.296Z,23.61
2022-10-11T12:43:13.303Z,23.63
2022-10-11T12:44:13.265Z,23.59
2022-10-11T12:45:13.401Z,23.49
2022-10-11T12:46:13.302Z,23.39
2022-10-11T12:47:13.293Z,23.37
2022-10-11T12:48:13.289Z,23.34
2022-10-11T12:49:13.307Z,23.22
2022-10-11T12:50:13.308Z,23.17
2022-10-11T12:51:13.334Z,23.20
2022-10-11T12:52:13.323Z,23.25
2022-10-11T12:54:26.824Z,23.29
2022-10-11T12:55:13.322Z,23.31
2022-10-11T12:56:13.335Z,23.33
2022-10-11T12:57:13.329Z,23.29
2022-10-11T13:00:13.347Z,23.33
2022-10-11T13:01:13.375Z,23.34
2022-10-11T13:02:13.340Z,23.38
2022-10-11T13:03:13.334Z,23.40
2022-10-11T13:04:13.333Z,23.41
2022-10-11T13:05:13.362Z,23.35
2022-10-11T13:06:13.363Z,23.33
2022-10-11T13:07:13.392Z,23.30
2022-10-11T13:11:13.357Z,23.28
2022-10-11T13:12:13.346Z,23.26
2022-10-11T13:13:13.395Z,23.25
2022-10-11T13:14:13.356Z,23.24
2022-10-11T13:15:13.510Z,23.27
2022-10-11T13:17:13.382Z,23.25
2022-10-11T13:19:13.380Z,23.26
2022-10-11T13:20:13.412Z,23.28
2022-10-11T13:21:13.387Z,23.22
2022-10-11T13:22:13.379Z,23.18
2022-10-11T13:23:13.416Z,23.08
2022-10-11T13:24:13.394Z,23.02
2022-10-11T13:25:13.392Z,22.98
2022-10-11T13:26:13.397Z,22.99
2022-10-11T13:27:13.437Z,23.00
2022-10-11T13:28:13.432Z,23.01
2022-10-11T13:29:13.395Z,22.98
2022-10-11T13:30:13.412Z,22.87
2022-10-11T13:31:13.408Z,22.79
2022-10-11T13:32:13.432Z,22.72
2022-10-11T13:33:13.432Z,22.65
2022-10-11T13:34:13.430Z,22.60
2022-10-11T13:35:13.403Z,22.58
2022-10-11T13:36:13.438Z,22.61
2022-10-11T13:37:13.441Z,22.63
2022-10-11T13:38:13.412Z,22.66
2022-10-11T13:39:13.453Z,22.70
2022-10-11T13:40:13.432Z,22.74
2022-10-11T13:41:13.448Z,22.75
2022-10-11T13:42:13.465Z,22.76
2022-10-11T13:44:13.440Z,22.77
2022-10-11T13:45:13.458Z,22.76
2022-10-11T13:46:13.437Z,22.71
2022-10-11T13:47:13.473Z,22.70
2022-10-11T13:48:13.444Z,22.67
2022-10-11T13:49:13.444Z,22.64
2022-10-11T13:50:13.463Z,22.58
2022-10-11T13:51:13.468Z,22.50
2022-10-11T13:52:13.472Z,22.44
2022-10-11T13:53:13.453Z,22.41
2022-10-11T13:54:14.102Z,22.36
2022-10-11T13:55:13.483Z,22.26
2022-10-11T13:56:13.470Z,22.21
2022-10-11T13:57:13.482Z,22.18
2022-10-11T13:58:18.376Z,22.21
2022-10-11T13:59:13.475Z,22.23
2022-10-11T14:01:13.528Z,22.19
2022-10-11T14:02:13.506Z,22.20
2022-10-11T14:03:13.506Z,22.25
2022-10-11T14:04:13.558Z,22.21
2022-10-11T14:05:13.482Z,22.12
2022-10-11T14:06:13.524Z,22.06
2022-10-11T14:07:13.495Z,22.02
2022-10-11T14:08:13.491Z,21.96
2022-10-11T14:09:13.504Z,21.99
2022-10-11T14:10:13.535Z,21.95
2022-10-11T14:11:13.509Z,21.89
2022-10-11T14:12:13.533Z,21.81
2022-10-11T14:13:13.520Z,21.76
2022-10-11T14:14:13.530Z,21.75
2022-10-11T14:15:13.558Z,21.81
2022-10-11T14:16:13.514Z,21.88
2022-10-11T14:17:13.533Z,21.95
2022-10-11T14:18:13.512Z,22.03
2022-10-11T14:19:13.540Z,22.05
2022-10-11T14:20:13.528Z,22.09
2022-10-11T14:21:13.566Z,22.06
2022-10-11T14:22:13.557Z,22.04
2022-10-11T14:23:13.543Z,21.99
2022-10-11T14:24:13.563Z,21.82
2022-10-11T14:25:13.558Z,21.75
2022-10-11T14:26:18.368Z,21.72
2022-10-11T14:27:13.572Z,21.74
2022-10-11T14:28:13.643Z,21.76
2022-10-11T14:29:13.559Z,21.81
2022-10-11T14:30:25.145Z,21.88
2022-10-11T14:31:13.567Z,21.87
2022-10-11T14:32:13.577Z,21.84
2022-10-11T14:33:13.574Z,21.78
2022-10-11T14:35:13.584Z,21.77
2022-10-11T14:36:13.560Z,21.72
2022-10-11T14:37:13.568Z,21.71
2022-10-11T14:38:13.599Z,21.69
2022-10-11T14:39:13.595Z,21.66
2022-10-11T14:41:13.601Z,21.67
2022-10-11T14:42:13.622Z,21.69
2022-10-11T14:44:13.613Z,21.71
2022-10-11T14:45:13.619Z,21.73
2022-10-11T14:46:13.603Z,21.76
2022-10-11T14:47:13.615Z,21.77
2022-10-11T14:48:13.614Z,21.79
2022-10-11T14:49:13.626Z,21.82
2022-10-11T14:50:13.618Z,21.79
2022-10-11T14:51:13.627Z,21.77
2022-10-11T14:52:13.606Z,21.73
2022-10-11T14:53:13.629Z,21.72
2022-10-11T14:55:13.635Z,21.71
2022-10-11T14:56:17.730Z,21.67
2022-10-11T14:57:13.649Z,21.60
2022-10-11T14:58:13.645Z,21.56
2022-10-11T14:59:13.635Z,21.44
2022-10-11T15:00:13.635Z,21.39
2022-10-11T15:01:13.758Z,21.36
2022-10-11T15:03:13.643Z,21.33
2022-10-11T15:04:13.645Z,21.34
2022-10-11T15:05:13.673Z,21.38
2022-10-11T15:06:13.648Z,21.35
2022-10-11T15:09:13.669Z,21.38
2022-10-11T15:10:13.683Z,21.40
2022-10-11T15:11:13.681Z,21.39
2022-10-11T15:12:13.658Z,21.36
2022-10-11T15:13:13.675Z,21.34
2022-10-11T15:14:13.685Z,21.33
2022-10-11T15:16:13.672Z,21.34
2022-10-11T15:17:13.668Z,21.31
2022-10-11T15:18:13.687Z,21.34
2022-10-11T15:19:13.710Z,21.33
2022-10-11T15:20:13.687Z,21.34
2022-10-11T15:21:13.723Z,21.38
2022-10-11T15:22:13.705Z,21.44
2022-10-11T15:23:13.681Z,21.49
2022-10-11T15:24:13.712Z,21.50
2022-10-11T15:25:13.687Z,21.49
2022-10-11T15:26:13.717Z,21.50
2022-10-11T15:27:13.719Z,21.43
2022-10-11T15:28:13.727Z,21.35
2022-10-11T15:29:13.685Z,21.29
2022-10-11T15:30:13.722Z,21.26
2022-10-11T15:31:13.716Z,21.27
2022-10-11T15:32:13.705Z,21.25
2022-10-11T15:34:13.709Z,21.21
2022-10-11T15:36:13.718Z,21.16
2022-10-11T15:37:13.738Z,21.14
2022-10-11T15:38:13.736Z,21.18
2022-10-11T15:39:13.736Z,21.12
2022-10-11T15:41:13.732Z,21.14
2022-10-11T15:42:13.734Z,21.10
2022-10-11T15:43:13.749Z,21.11
2022-10-11T15:44:13.732Z,21.13
2022-10-11T15:45:13.740Z,21.15
2022-10-11T15:46:13.759Z,21.14
2022-10-11T15:47:13.743Z,21.12
2022-10-11T15:48:13.774Z,21.13
2022-10-11T15:49:13.776Z,21.14
2022-10-11T15:50:13.758Z,21.11
2022-10-11T15:51:13.783Z,21.12
2022-10-11T15:52:13.770Z,21.14
2022-10-11T15:53:13.797Z,21.15
2022-10-11T15:54:13.778Z,21.16
2022-10-11T15:55:13.755Z,21.19
2022-10-11T15:57:14.075Z,21.17
2022-10-11T15:58:13.771Z,21.16